Warnock, OH (43967)

1:11 PM EDT on September 30, 2016 (GMT -0400)
Morristown, Ohio | | Change Station

Elev 1283 ft 40.08 °N, 81.06 °W | Updated 1 minute ago

Light Rain
Light Rain Mist
59.0 °F
Feels Like 59.0 °F
N
2.0
Wind Variable Wind from ENE

Today
High -- | Low -- °F
--% Chance of Precip.
Yesterday
High -- | Low -- °F
Precip. -- in
Pressure 30.12 in
Visibility 5.0 miles
Clouds Overcast 1700 ft
Dew Point 54 °F
Humidity 85%
Rainfall 0.51 in
Snow Depth Not available.
7:19 AM 7:06 PM
Waning Crescent, 0% visible
METAR KHLG 301653Z 00000KT 5SM -RA BR OVC017 16/14 A3011 RMK AO2 LTG DSNT S AND NW RAB29 SLP197 P0004 T01610139
Pressure 30.12 in
Visibility 5.0 miles
Clouds Overcast 1700 ft
Dew Point 54 °F
Humidity 85%
Rainfall 0.51 in
Snow Depth Not available.
7:19 AM 7:06 PM
Waning Crescent, 0% visible
METAR KHLG 301653Z 00000KT 5SM -RA BR OVC017 16/14 A3011 RMK AO2 LTG DSNT S AND NW RAB29 SLP197 P0004 T01610139

10-Day Weather Forecast

Almanac

Astronomy

Sep. 30, 2016 Rise Set
Actual Time
Civil Twilight
Nautical Twilight
Astronomical Twilight
Moon
Length of Visible Light
Length of Day
Tomorrow will be .
, % of the Moon is Illuminated

Today's Extremes

State Highs State Lows

Community

WunderPhotos

Upload Photos

1,942,752 photos uploaded!

WunderBlog® & News

Nearby

Air Quality

  Air Quality AQ Index Pollutant
Not available.

Snow Depth

Station Depth Elevation

Earthquake Activity

City Distance Mag. Time & Date
Minimum magnitude displayed is 2.5.

Coastal Water Temperatures

Place Temperature

Stations

Nearby Weather Stations

Station Location Temp. Windchill Dew Point Humidity Wind Precip. Elev Updated Type
                   

Watches & Warnings

There are currently no watches in effect.